Time;durP1;ratioP1;P1;durP2;ratioP2;P2;SDS_P1;SDS_P2;PMS_P1;PMS_P2;Temp;Humidity;BMP_temperature;BMP_pressure;BME280_temperature;BME280_humidity;BME280_pressure;Samples;Min_cycle;Max_cycle;Signal;HPM_P1;HPM_P2
2021/11/08 00:01:07;;;;;;;19.63;3.83;;;6.30;99.90;;;;;;5035803;28;20039;-85
2021/11/08 00:03:35;;;;;;;19.90;3.67;;;6.30;99.90;;;;;;5031817;28;20456;-84
2021/11/08 00:06:04;;;;;;;23.58;4.13;;;6.30;99.90;;;;;;5027275;28;20025;-85
2021/11/08 00:08:31;;;;;;;19.02;3.65;;;6.30;99.90;;;;;;5019498;28;20103;-85
2021/11/08 00:10:57;;;;;;;28.13;4.32;;;6.30;99.90;;;;;;5023465;28;20184;-85
2021/11/08 00:13:24;;;;;;;17.60;3.75;;;6.20;99.90;;;;;;5035220;28;20064;-84
2021/11/08 00:18:38;;;;;;;27.90;4.20;;;6.10;99.90;;;;;;5050958;28;20025;-85
2021/11/08 00:21:03;;;;;;;18.15;4.13;;;6.10;99.90;;;;;;5033995;28;20504;-84
2021/11/08 00:23:29;;;;;;;31.67;3.90;;;6.00;99.90;;;;;;5035529;28;20376;-85
2021/11/08 00:25:57;;;;;;;25.25;4.55;;;6.00;99.90;;;;;;5035841;28;20032;-85
2021/11/08 00:28:24;;;;;;;23.48;3.90;;;6.00;99.90;;;;;;5025050;28;20033;-85
2021/11/08 00:30:51;;;;;;;21.98;4.47;;;6.00;99.90;;;;;;5028253;28;20439;-85
2021/11/08 00:33:19;;;;;;;20.67;4.28;;;6.00;99.90;;;;;;5035493;28;20083;-85
2021/11/08 00:35:55;;;;;;;25.42;5.45;;;6.10;99.90;;;;;;5035996;28;20032;-84
2021/11/08 00:38:21;;;;;;;21.23;4.68;;;6.10;99.90;;;;;;5028519;28;20029;-85
2021/11/08 00:40:48;;;;;;;21.65;3.67;;;6.10;99.90;;;;;;5035125;28;20017;-84
2021/11/08 00:43:14;;;;;;;24.38;4.95;;;6.10;99.90;;;;;;5017008;28;20048;-84
2021/11/08 00:45:40;;;;;;;26.98;4.28;;;6.20;99.90;;;;;;5033795;28;20029;-85
2021/11/08 00:48:07;;;;;;;22.95;4.22;;;6.20;99.90;;;;;;5019928;28;20112;-84
2021/11/08 00:50:33;;;;;;;20.33;4.47;;;6.30;99.90;;;;;;5032866;28;20037;-84
2021/11/08 00:53:00;;;;;;;15.45;4.32;;;6.30;99.90;;;;;;5027688;28;20024;-84
2021/11/08 00:55:26;;;;;;;22.00;5.03;;;6.30;99.90;;;;;;5030521;28;20075;-85
2021/11/08 00:57:56;;;;;;;21.38;4.95;;;6.30;99.90;;;;;;5034677;28;20031;-84
2021/11/08 01:00:25;;;;;;;29.10;5.75;;;6.30;99.90;;;;;;5050429;28;20056;-85
2021/11/08 01:02:51;;;;;;;27.90;5.35;;;6.20;99.90;;;;;;5029603;28;20374;-84
2021/11/08 01:05:18;;;;;;;22.20;4.07;;;6.20;99.90;;;;;;5033842;28;20025;-85
2021/11/08 01:07:44;;;;;;;25.02;4.20;;;6.20;99.90;;;;;;5034063;28;20091;-84
2021/11/08 01:10:15;;;;;;;28.35;5.05;;;6.20;99.90;;;;;;5031334;28;20033;-84
2021/11/08 01:12:40;;;;;;;19.40;4.35;;;6.20;99.90;;;;;;5050093;28;20047;-84
2021/11/08 01:15:07;;;;;;;38.33;4.90;;;6.20;99.90;;;;;;5022836;28;20030;-84
2021/11/08 01:17:34;;;;;;;21.08;4.30;;;6.20;99.90;;;;;;5049515;28;20059;-84
2021/11/08 01:20:01;;;;;;;22.42;4.43;;;6.20;99.90;;;;;;5034639;28;20052;-84
2021/11/08 01:22:27;;;;;;;28.17;5.10;;;6.10;99.90;;;;;;5045005;28;20465;-84
2021/11/08 01:24:55;;;;;;;18.60;4.93;;;6.10;99.90;;;;;;5051977;28;20086;-84
2021/11/08 01:27:35;;;;;;;22.15;4.60;;;6.10;99.90;;;;;;5032881;28;20029;-84
2021/11/08 01:30:05;;;;;;;21.95;3.88;;;6.00;99.90;;;;;;5048731;28;20079;-85
2021/11/08 01:32:31;;;;;;;27.75;4.97;;;5.90;99.90;;;;;;5023402;28;20447;-84
2021/11/08 01:34:57;;;;;;;17.02;4.22;;;5.90;99.90;;;;;;5052867;28;20021;-84
2021/11/08 01:37:23;;;;;;;18.95;4.22;;;5.80;99.90;;;;;;5031024;28;20025;-85
2021/11/08 01:39:48;;;;;;;27.10;4.90;;;5.80;99.90;;;;;;5033143;28;20025;-85
2021/11/08 01:42:15;;;;;;;20.05;4.55;;;5.80;99.90;;;;;;5029543;28;20046;-85
2021/11/08 01:44:41;;;;;;;16.90;4.75;;;5.70;99.90;;;;;;5027610;28;20017;-85
2021/11/08 01:47:09;;;;;;;20.45;4.50;;;5.70;99.90;;;;;;5033172;28;20036;-84
2021/11/08 01:49:35;;;;;;;20.27;4.25;;;5.70;99.90;;;;;;5022265;28;20547;-85
2021/11/08 01:52:01;;;;;;;22.45;4.38;;;5.60;99.90;;;;;;5032950;28;20119;-85
2021/11/08 01:54:27;;;;;;;27.88;5.38;;;5.60;99.90;;;;;;5027320;28;20108;-85
2021/11/08 01:56:55;;;;;;;23.92;4.70;;;5.50;99.90;;;;;;5035190;28;20481;-84
2021/11/08 01:59:23;;;;;;;23.67;4.47;;;5.50;99.90;;;;;;5050006;28;20045;-84
2021/11/08 02:01:50;;;;;;;32.35;5.60;;;5.50;99.90;;;;;;5027393;28;20123;-84
2021/11/08 02:04:16;;;;;;;23.30;5.20;;;5.50;99.90;;;;;;5017587;28;20544;-84
2021/11/08 02:06:42;;;;;;;23.88;5.47;;;5.50;99.90;;;;;;5034558;28;20479;-84
2021/11/08 02:09:07;;;;;;;24.00;4.13;;;5.50;99.90;;;;;;5033353;28;20024;-85
2021/11/08 02:11:35;;;;;;;22.33;3.65;;;5.50;99.90;;;;;;5031194;28;20024;-85
2021/11/08 02:14:02;;;;;;;19.85;4.50;;;5.40;99.90;;;;;;5034150;28;20091;-84
2021/11/08 02:16:27;;;;;;;25.40;4.30;;;5.40;99.90;;;;;;5033383;28;20028;-84
2021/11/08 02:18:53;;;;;;;23.55;3.75;;;5.30;99.90;;;;;;5032928;28;20021;-84
2021/11/08 02:21:19;;;;;;;22.33;3.95;;;5.40;99.90;;;;;;5033787;28;20033;-85
2021/11/08 02:23:48;;;;;;;21.60;3.83;;;5.30;99.90;;;;;;5015697;28;20049;-84
2021/11/08 02:26:16;;;;;;;21.58;3.38;;;5.20;99.90;;;;;;5021586;28;20034;-84
2021/11/08 02:28:46;;;;;;;30.33;3.83;;;5.20;99.90;;;;;;5025570;28;20030;-85
2021/11/08 02:31:16;;;;;;;22.40;3.67;;;5.20;99.90;;;;;;5021669;28;20028;-85
2021/11/08 02:33:43;;;;;;;17.75;3.58;;;5.20;99.90;;;;;;5027344;28;20025;-84
2021/11/08 02:36:09;;;;;;;19.63;3.70;;;5.10;99.90;;;;;;5034535;28;20587;-85
2021/11/08 02:38:38;;;;;;;26.50;4.00;;;5.10;99.90;;;;;;5027470;28;20040;-84
2021/11/08 02:41:04;;;;;;;20.60;4.55;;;5.10;99.90;;;;;;5028642;28;20491;-85
2021/11/08 02:43:30;;;;;;;28.08;4.72;;;5.10;99.90;;;;;;5032257;28;20069;-85
2021/11/08 02:46:07;;;;;;;25.20;5.25;;;5.10;99.90;;;;;;5034681;28;20029;-85
2021/11/08 02:48:35;;;;;;;17.63;3.92;;;5.10;99.90;;;;;;5032271;28;20021;-85
2021/11/08 02:51:12;;;;;;;25.70;4.55;;;5.00;99.90;;;;;;5049736;28;20021;-85
2021/11/08 02:53:39;;;;;;;25.25;4.80;;;5.00;99.90;;;;;;5033543;28;20021;-85
2021/11/08 02:56:07;;;;;;;21.65;5.70;;;4.90;99.90;;;;;;5028566;28;20040;-84
2021/11/08 02:58:33;;;;;;;22.08;4.65;;;4.90;99.90;;;;;;5025043;28;20065;-85
2021/11/08 03:00:59;;;;;;;29.85;5.20;;;4.90;99.90;;;;;;5030913;28;20480;-85
2021/11/08 03:03:35;;;;;;;25.48;4.35;;;4.90;99.90;;;;;;5031420;28;20412;-85
2021/11/08 03:06:07;;;;;;;21.88;5.82;;;4.90;99.90;;;;;;5019026;28;20033;-84
2021/11/08 03:08:33;;;;;;;27.13;5.15;;;4.90;99.90;;;;;;5029868;28;20074;-84
2021/11/08 03:10:59;;;;;;;25.25;6.60;;;4.80;99.90;;;;;;5033359;28;20389;-85
2021/11/08 03:13:26;;;;;;;25.52;5.55;;;4.80;99.90;;;;;;5032560;28;20425;-85
2021/11/08 03:16:05;;;;;;;24.33;5.10;;;4.80;99.90;;;;;;5032648;28;20025;-85
2021/11/08 03:18:41;;;;;;;29.08;6.18;;;4.70;99.90;;;;;;5032378;28;20069;-85
2021/11/08 03:21:18;;;;;;;22.27;5.38;;;4.70;99.90;;;;;;5033542;28;20392;-85
2021/11/08 03:23:47;;;;;;;27.27;6.15;;;4.70;99.90;;;;;;5032479;28;20479;-84
2021/11/08 03:28:39;;;;;;;28.65;5.47;;;4.70;99.90;;;;;;5050904;28;20503;-85
2021/11/08 03:31:09;;;;;;;23.73;5.55;;;4.60;99.90;;;;;;5037275;28;20025;-85
2021/11/08 03:33:35;;;;;;;23.50;5.57;;;4.60;99.90;;;;;;5035338;28;20029;-85
2021/11/08 03:36:02;;;;;;;30.63;7.00;;;4.60;99.90;;;;;;5037998;28;20028;-85
2021/11/08 03:38:28;;;;;;;23.60;5.75;;;4.60;99.90;;;;;;5023230;28;20029;-85
2021/11/08 03:40:54;;;;;;;30.90;6.75;;;4.60;99.90;;;;;;5033428;28;20543;-84
2021/11/08 03:43:20;;;;;;;32.85;6.88;;;4.60;99.90;;;;;;5031837;28;20128;-84
2021/11/08 03:45:49;;;;;;;21.48;5.82;;;4.70;99.90;;;;;;5036504;28;20017;-85
2021/11/08 03:48:16;;;;;;;34.80;6.60;;;4.60;99.90;;;;;;5035324;28;20028;-85
2021/11/08 03:50:43;;;;;;;24.80;6.57;;;4.70;99.90;;;;;;5034019;28;20035;-85
2021/11/08 03:53:09;;;;;;;29.45;6.10;;;4.70;99.90;;;;;;5024875;28;20151;-85
2021/11/08 03:55:35;;;;;;;26.05;7.20;;;4.70;99.90;;;;;;5034694;28;20116;-85
2021/11/08 03:58:01;;;;;;;28.92;7.05;;;4.70;99.90;;;;;;5034892;28;20053;-85
2021/11/08 04:00:28;;;;;;;22.88;6.43;;;4.70;99.90;;;;;;5032391;28;20077;-85
2021/11/08 04:02:55;;;;;;;28.63;6.75;;;4.70;99.90;;;;;;5029257;28;20029;-85
2021/11/08 04:05:21;;;;;;;20.10;6.15;;;4.60;99.90;;;;;;5014037;28;20030;-85
2021/11/08 04:07:47;;;;;;;28.52;6.45;;;4.60;99.90;;;;;;5026994;28;20029;-85
2021/11/08 04:10:15;;;;;;;25.98;6.45;;;4.60;99.90;;;;;;5030583;28;20021;-85
2021/11/08 04:12:41;;;;;;;28.60;6.43;;;4.50;99.90;;;;;;5021916;28;20032;-85
2021/11/08 04:15:10;;;;;;;20.80;6.60;;;4.50;99.90;;;;;;5014425;28;20088;-84
2021/11/08 04:17:42;;;;;;;28.40;6.68;;;4.60;99.90;;;;;;5030594;28;20022;-85
2021/11/08 04:20:09;;;;;;;28.80;6.30;;;4.60;99.90;;;;;;5031832;28;20029;-85
2021/11/08 04:22:36;;;;;;;34.78;7.32;;;4.60;99.90;;;;;;5029457;28;20045;-85
2021/11/08 04:25:03;;;;;;;26.25;7.22;;;4.70;99.90;;;;;;5032727;28;20035;-85
2021/11/08 04:27:33;;;;;;;30.67;8.15;;;4.70;99.90;;;;;;5028331;28;20109;-85
2021/11/08 04:29:59;;;;;;;24.90;6.72;;;4.80;99.90;;;;;;5028818;28;20443;-84
2021/11/08 04:32:30;;;;;;;28.95;6.82;;;4.80;99.90;;;;;;5024077;28;20029;-84
2021/11/08 04:35:04;;;;;;;28.85;6.55;;;4.90;99.90;;;;;;5031769;28;20477;-84
2021/11/08 04:37:52;;;;;;;28.17;7.72;;;4.90;99.90;;;;;;5030879;28;20030;-85
2021/11/08 04:46:09;;;;;;;30.65;7.13;;;5.00;99.90;;;;;;5027279;28;20465;-85
2021/11/08 04:48:51;;;;;;;27.70;8.80;;;5.00;99.90;;;;;;5028394;28;20029;-85
2021/11/08 04:51:30;;;;;;;26.83;7.25;;;5.00;99.90;;;;;;5031819;28;20058;-85
2021/11/08 05:21:34;;;;;;;30.08;7.45;;;5.60;99.90;;;;;;5048186;28;20093;-84
2021/11/08 05:24:21;;;;;;;21.83;7.60;;;5.70;99.90;;;;;;5015504;28;20041;-85
2021/11/08 05:32:25;;;;;;;39.10;9.10;;;5.80;99.90;;;;;;5044606;28;20487;-84
2021/11/08 05:34:51;;;;;;;23.65;7.10;;;5.80;99.90;;;;;;5019852;28;20034;-85
2021/11/08 05:37:18;;;;;;;26.63;7.40;;;5.70;99.90;;;;;;5023079;28;20039;-85
2021/11/08 05:39:53;;;;;;;21.95;6.65;;;5.70;99.90;;;;;;5028533;28;20032;-85
2021/11/08 05:42:20;;;;;;;31.92;8.07;;;5.60;99.90;;;;;;5051565;28;20029;-84
2021/11/08 05:44:46;;;;;;;27.67;8.77;;;5.50;99.90;;;;;;5039206;28;20029;-84
2021/11/08 05:47:12;;;;;;;38.90;8.73;;;5.50;99.90;;;;;;5026302;28;20032;-84
2021/11/08 05:49:38;;;;;;;23.17;8.10;;;5.50;99.90;;;;;;5048118;28;20036;-85
2021/11/08 05:52:04;;;;;;;30.02;9.40;;;5.50;99.90;;;;;;5045004;28;20021;-85
2021/11/08 05:54:30;;;;;;;28.67;8.43;;;5.50;99.90;;;;;;5034054;28;20037;-84
2021/11/08 06:51:22;;;;;;;27.13;9.07;;;5.40;99.90;;;;;;5057857;28;20483;-84
2021/11/08 06:53:50;;;;;;;48.67;10.45;;;5.50;99.90;;;;;;5029117;28;20029;-84
2021/11/08 06:56:25;;;;;;;46.00;9.68;;;5.50;99.90;;;;;;5034673;28;20082;-84
2021/11/08 06:58:50;;;;;;;40.08;11.07;;;5.60;99.90;;;;;;5030290;28;20497;-85
2021/11/08 07:01:16;;;;;;;30.60;8.85;;;5.60;99.90;;;;;;5024210;28;20036;-85
2021/11/08 07:03:42;;;;;;;43.58;9.85;;;5.60;99.90;;;;;;5035250;28;20485;-84
2021/11/08 07:06:07;;;;;;;38.00;10.77;;;5.60;99.90;;;;;;5031957;28;20017;-84
2021/11/08 07:08:33;;;;;;;34.38;10.88;;;5.70;99.90;;;;;;5021980;28;20021;-84
2021/11/08 07:10:58;;;;;;;33.25;9.95;;;5.70;99.90;;;;;;5036794;28;20017;-84
2021/11/08 07:13:24;;;;;;;34.75;10.25;;;5.70;99.90;;;;;;5038136;28;20288;-85
2021/11/08 07:15:50;;;;;;;48.33;11.30;;;5.80;99.90;;;;;;5033011;28;20128;-83
2021/11/08 07:18:16;;;;;;;39.50;10.75;;;5.80;99.90;;;;;;5038303;28;20365;-85
2021/11/08 07:20:41;;;;;;;40.28;10.85;;;5.90;99.90;;;;;;5038218;28;20464;-84
2021/11/08 07:23:07;;;;;;;38.53;11.13;;;6.00;99.90;;;;;;5037929;28;20036;-84
2021/11/08 07:25:33;;;;;;;40.60;11.65;;;6.00;99.90;;;;;;5037223;28;20024;-85
2021/11/08 07:27:59;;;;;;;34.22;10.10;;;6.10;99.90;;;;;;5033843;28;20033;-85
2021/11/08 07:30:25;;;;;;;42.47;11.05;;;6.10;99.90;;;;;;5019694;28;20025;-85
2021/11/08 07:32:51;;;;;;;35.72;10.10;;;6.20;99.90;;;;;;5028843;28;20033;-85
2021/11/08 07:35:18;;;;;;;36.70;11.10;;;6.30;99.90;;;;;;5037622;28;20028;-85
2021/11/08 07:37:43;;;;;;;42.50;10.88;;;6.30;99.90;;;;;;5037990;28;20433;-85
2021/11/08 07:40:10;;;;;;;34.47;10.50;;;6.30;99.90;;;;;;5032492;28;20184;-85
2021/11/08 07:42:36;;;;;;;27.95;9.45;;;6.50;99.90;;;;;;5025638;28;20032;-85
2021/11/08 07:45:01;;;;;;;30.98;10.60;;;6.50;99.90;;;;;;5037786;28;20029;-85
2021/11/08 07:47:27;;;;;;;41.70;9.88;;;6.60;99.90;;;;;;5035005;28;20023;-85
2021/11/08 07:49:52;;;;;;;42.47;10.02;;;6.60;99.90;;;;;;5033204;28;20017;-85
2021/11/08 07:52:18;;;;;;;30.67;11.05;;;6.70;99.90;;;;;;5038162;28;20033;-84
2021/11/08 07:54:44;;;;;;;31.55;10.05;;;6.70;99.90;;;;;;5040326;28;20492;-86
2021/11/08 07:57:09;;;;;;;40.40;10.30;;;6.80;99.90;;;;;;5037169;28;20037;-85
2021/11/08 07:59:35;;;;;;;31.23;9.73;;;6.90;99.90;;;;;;5021124;28;20048;-84
2021/11/08 08:02:05;;;;;;;39.28;10.00;;;6.90;99.90;;;;;;5054789;28;20036;-84
2021/11/08 08:04:31;;;;;;;30.83;10.10;;;7.00;99.90;;;;;;5054369;28;20112;-84
2021/11/08 08:06:56;;;;;;;37.28;10.73;;;7.00;99.90;;;;;;5027903;28;20064;-85
2021/11/08 08:09:22;;;;;;;40.00;10.85;;;7.10;99.90;;;;;;5033546;28;20040;-84
2021/11/08 08:11:48;;;;;;;39.65;9.75;;;7.20;99.90;;;;;;5038701;28;20029;-84
2021/11/08 08:14:14;;;;;;;33.85;10.65;;;7.20;99.90;;;;;;5038449;28;20116;-85
2021/11/08 08:16:40;;;;;;;31.33;9.43;;;7.30;99.90;;;;;;5038714;28;20036;-85
2021/11/08 08:19:06;;;;;;;35.53;9.70;;;7.30;99.90;;;;;;5034411;28;20060;-85
2021/11/08 08:21:31;;;;;;;35.30;9.98;;;7.40;99.90;;;;;;5034928;28;20641;-85
2021/11/08 08:24:00;;;;;;;31.23;9.52;;;7.50;99.90;;;;;;5056689;28;20124;-84
2021/11/08 08:26:28;;;;;;;39.22;9.48;;;7.50;99.90;;;;;;5054205;28;20036;-85
2021/11/08 08:28:54;;;;;;;35.50;8.95;;;7.60;99.90;;;;;;5037993;28;20376;-85
2021/11/08 08:31:20;;;;;;;36.50;8.93;;;7.60;99.90;;;;;;5031584;28;20501;-85
2021/11/08 08:33:46;;;;;;;34.78;8.45;;;7.70;99.90;;;;;;5025766;28;20028;-85
2021/11/08 08:36:12;;;;;;;32.03;8.88;;;7.70;99.90;;;;;;5023916;28;20121;-84
2021/11/08 08:38:38;;;;;;;26.15;7.88;;;7.80;99.90;;;;;;5036596;28;20021;-85
2021/11/08 08:41:05;;;;;;;24.80;8.27;;;7.90;99.90;;;;;;5043611;28;20125;-85
2021/11/08 08:43:33;;;;;;;31.55;7.80;;;8.00;99.90;;;;;;5038051;28;20029;-85
2021/11/08 08:45:59;;;;;;;28.45;7.07;;;8.10;99.90;;;;;;5018444;28;20030;-85
2021/11/08 08:48:26;;;;;;;27.13;7.82;;;8.20;99.90;;;;;;5036456;28;20036;-86
2021/11/08 08:50:53;;;;;;;29.77;7.97;;;8.20;99.90;;;;;;5031116;28;20029;-85
2021/11/08 08:53:19;;;;;;;31.02;7.72;;;8.30;99.90;;;;;;5051467;28;20029;-84
2021/11/08 08:55:46;;;;;;;34.85;7.72;;;8.40;99.90;;;;;;5043607;28;20040;-84
2021/11/08 08:58:12;;;;;;;34.88;8.25;;;8.40;99.90;;;;;;5024489;28;20025;-85
2021/11/08 09:00:43;;;;;;;29.92;7.50;;;8.50;99.90;;;;;;5018471;28;20046;-84
2021/11/08 09:03:10;;;;;;;30.38;6.90;;;8.50;99.90;;;;;;5030711;28;20041;-85
2021/11/08 09:05:36;;;;;;;29.63;7.95;;;8.60;99.90;;;;;;5031747;28;20017;-85
2021/11/08 09:08:03;;;;;;;27.20;7.20;;;8.60;99.90;;;;;;5032305;28;20056;-85
2021/11/08 09:10:31;;;;;;;38.17;8.27;;;8.60;99.90;;;;;;5035232;28;20103;-85
2021/11/08 09:12:57;;;;;;;29.80;7.85;;;8.60;99.90;;;;;;5035808;28;20420;-85
2021/11/08 09:15:25;;;;;;;31.27;7.38;;;8.60;99.90;;;;;;5035462;28;20024;-84
2021/11/08 09:17:51;;;;;;;28.65;7.13;;;8.60;99.90;;;;;;5035525;28;20498;-84
2021/11/08 09:20:17;;;;;;;35.58;7.72;;;8.70;99.90;;;;;;5034271;28;20091;-85
2021/11/08 09:22:45;;;;;;;27.38;6.93;;;8.70;99.90;;;;;;5035509;28;20052;-84
2021/11/08 09:25:13;;;;;;;24.27;6.53;;;8.70;99.90;;;;;;5033740;28;20023;-84
2021/11/08 09:27:41;;;;;;;25.17;6.13;;;8.80;99.90;;;;;;5034989;28;20040;-84
2021/11/08 09:30:10;;;;;;;29.33;6.50;;;8.80;99.90;;;;;;5051522;28;20020;-84
2021/11/08 09:32:35;;;;;;;31.95;6.90;;;8.90;99.90;;;;;;5031336;28;20032;-85
2021/11/08 09:35:04;;;;;;;27.02;6.45;;;9.00;99.90;;;;;;5036179;28;20536;-84
2021/11/08 09:37:33;;;;;;;23.08;5.22;;;9.00;99.90;;;;;;5036450;28;20029;-84
2021/11/08 09:39:59;;;;;;;22.50;4.78;;;9.20;99.90;;;;;;5022245;28;20025;-84
2021/11/08 09:42:27;;;;;;;28.27;6.30;;;9.20;99.90;;;;;;5034104;28;20101;-85
2021/11/08 09:44:52;;;;;;;28.35;5.50;;;9.20;99.90;;;;;;5034830;28;20028;-85
2021/11/08 09:47:18;;;;;;;28.45;5.80;;;9.30;99.90;;;;;;5033833;28;20025;-84
2021/11/08 09:49:51;;;;;;;22.42;5.75;;;9.30;99.90;;;;;;5036428;28;20486;-85
2021/11/08 09:52:17;;;;;;;28.15;5.05;;;9.40;99.90;;;;;;5037528;28;20385;-84
2021/11/08 09:54:44;;;;;;;20.67;4.60;;;9.40;99.90;;;;;;5036701;28;20021;-84
2021/11/08 09:57:11;;;;;;;24.38;4.93;;;9.50;99.90;;;;;;5037181;28;20470;-85
2021/11/08 09:59:37;;;;;;;26.70;5.32;;;9.50;99.90;;;;;;5031992;28;20099;-84
2021/11/08 10:02:13;;;;;;;17.85;5.05;;;9.60;99.90;;;;;;5025661;28;20053;-94
2021/11/08 10:04:41;;;;;;;28.77;5.20;;;9.60;99.90;;;;;;5035929;28;20029;-95
2021/11/08 10:07:06;;;;;;;21.40;4.68;;;9.60;99.90;;;;;;5037174;28;20121;-95
2021/11/08 10:09:32;;;;;;;29.85;5.50;;;9.70;99.90;;;;;;5032187;28;20061;-85
2021/11/08 10:11:58;;;;;;;18.35;5.30;;;9.70;99.90;;;;;;5034057;28;20021;-86
2021/11/08 10:14:23;;;;;;;19.45;4.70;;;9.80;99.90;;;;;;5033212;28;20075;-86
2021/11/08 10:16:51;;;;;;;18.38;4.97;;;9.80;99.90;;;;;;5033657;28;20171;-85
2021/11/08 10:19:26;;;;;;;23.58;6.47;;;9.80;99.90;;;;;;5031803;28;20036;-86
2021/11/08 10:21:54;;;;;;;24.38;5.63;;;9.80;99.90;;;;;;5033057;28;20384;-85
2021/11/08 10:24:32;;;;;;;26.45;5.85;;;9.90;99.90;;;;;;5033168;28;20136;-85
2021/11/08 10:27:03;;;;;;;19.77;4.38;;;10.00;99.90;;;;;;5020281;28;20033;-85
2021/11/08 10:29:29;;;;;;;23.10;5.78;;;10.00;99.90;;;;;;5018226;28;20138;-85
2021/11/08 10:31:57;;;;;;;22.30;4.72;;;10.10;99.90;;;;;;5033320;28;20030;-85
2021/11/08 10:34:25;;;;;;;29.52;5.90;;;10.20;99.90;;;;;;5021598;28;20040;-86
2021/11/08 10:37:05;;;;;;;25.55;5.70;;;10.20;99.90;;;;;;5033085;28;20034;-85
2021/11/08 10:39:35;;;;;;;18.80;5.05;;;10.20;99.90;;;;;;5032988;28;20056;-85
2021/11/08 10:42:02;;;;;;;24.00;5.55;;;10.30;99.90;;;;;;5025675;28;20022;-85
2021/11/08 10:44:30;;;;;;;22.58;5.38;;;10.40;99.90;;;;;;5031797;28;20035;-86
2021/11/08 10:46:59;;;;;;;28.08;4.82;;;10.40;99.90;;;;;;5033792;28;20429;-86
2021/11/08 10:49:28;;;;;;;26.92;5.43;;;10.40;99.90;;;;;;5034223;28;20028;-86
2021/11/08 10:51:57;;;;;;;30.05;5.18;;;10.40;99.90;;;;;;5029004;28;20025;-85
2021/11/08 10:54:31;;;;;;;23.63;4.93;;;10.50;99.90;;;;;;5025516;28;20026;-85
2021/11/08 10:57:01;;;;;;;16.75;4.72;;;10.50;99.90;;;;;;5030986;28;20041;-86
2021/11/08 10:59:31;;;;;;;23.55;5.07;;;10.60;99.90;;;;;;5034352;28;20045;-85
2021/11/08 11:02:00;;;;;;;21.40;4.07;;;10.70;99.90;;;;;;5034713;28;20026;-84
2021/11/08 11:04:45;;;;;;;22.67;5.28;;;10.90;99.90;;;;;;5025963;28;20052;-84
2021/11/08 11:07:19;;;;;;;21.77;4.90;;;11.00;99.90;;;;;;5014869;28;20069;-85
2021/11/08 11:09:45;;;;;;;18.30;5.18;;;11.00;99.90;;;;;;5031791;28;20069;-85
2021/11/08 11:12:14;;;;;;;25.60;5.63;;;11.00;99.90;;;;;;5034533;28;20033;-85
2021/11/08 11:14:49;;;;;;;19.50;4.30;;;11.10;99.90;;;;;;5029044;28;20037;-85
2021/11/08 11:17:22;;;;;;;21.48;5.05;;;11.20;99.90;;;;;;5014624;28;20018;-84
2021/11/08 11:19:48;;;;;;;25.77;5.15;;;11.20;99.90;;;;;;5014818;28;20056;-85
2021/11/08 11:22:19;;;;;;;17.13;4.60;;;11.30;99.90;;;;;;5014384;28;20112;-84
2021/11/08 11:24:54;;;;;;;17.70;4.32;;;11.40;99.90;;;;;;5014934;28;20022;-83
2021/11/08 11:27:29;;;;;;;25.55;4.32;;;11.50;99.90;;;;;;5014249;28;20466;-84
2021/11/08 11:30:07;;;;;;;17.13;3.60;;;11.60;99.90;;;;;;5020612;28;20029;-84
2021/11/08 11:32:33;;;;;;;26.13;4.82;;;11.60;99.90;;;;;;5033763;28;20029;-84
2021/11/08 11:34:59;;;;;;;18.58;4.30;;;11.60;99.90;;;;;;5033885;28;20022;-85
2021/11/08 11:37:28;;;;;;;15.98;3.60;;;11.60;99.90;;;;;;5032079;28;20030;-85
2021/11/08 11:40:12;;;;;;;20.13;4.03;;;11.50;99.90;;;;;;5025134;28;20021;-84
2021/11/08 11:42:51;;;;;;;25.75;4.88;;;11.50;99.90;;;;;;5032660;28;20069;-84
2021/11/08 11:45:18;;;;;;;23.27;4.68;;;11.50;99.90;;;;;;5017273;28;20481;-84
2021/11/08 11:48:04;;;;;;;25.02;4.65;;;11.40;99.90;;;;;;5026632;28;20036;-84
2021/11/08 11:50:32;;;;;;;18.23;4.32;;;11.50;99.90;;;;;;5034978;28;20021;-83
2021/11/08 11:52:58;;;;;;;22.42;3.17;;;11.50;99.90;;;;;;5035449;28;20439;-85
2021/11/08 11:55:24;;;;;;;21.08;4.18;;;11.60;99.90;;;;;;5035616;28;20144;-84
2021/11/08 11:57:49;;;;;;;30.50;5.85;;;11.60;99.90;;;;;;5032864;28;20021;-84
2021/11/08 12:00:17;;;;;;;21.45;3.88;;;11.70;99.90;;;;;;5032013;28;20054;-85
2021/11/08 12:02:42;;;;;;;17.85;3.88;;;11.70;99.90;;;;;;5031986;28;20045;-85
2021/11/08 12:05:08;;;;;;;17.65;3.92;;;11.80;99.90;;;;;;5032785;28;20034;-85
2021/11/08 12:07:34;;;;;;;19.45;3.20;;;11.90;99.90;;;;;;5034147;28;20026;-84
2021/11/08 12:10:03;;;;;;;19.20;3.70;;;11.90;99.90;;;;;;5036835;28;20120;-84
2021/11/08 12:12:28;;;;;;;19.40;4.10;;;12.00;99.90;;;;;;5026489;28;20076;-85
2021/11/08 12:15:05;;;;;;;25.83;4.13;;;12.00;99.90;;;;;;5023775;28;20408;-84
2021/11/08 12:17:43;;;;;;;17.05;4.05;;;12.00;99.90;;;;;;5034944;28;20348;-84
2021/11/08 12:20:11;;;;;;;21.33;5.20;;;12.00;99.90;;;;;;5036637;28;20392;-84
2021/11/08 12:22:38;;;;;;;21.73;4.43;;;12.00;99.90;;;;;;5049013;28;20038;-86
2021/11/08 12:25:18;;;;;;;20.25;3.78;;;11.90;99.90;;;;;;5034592;28;20025;-85
2021/11/08 12:27:48;;;;;;;17.55;3.85;;;12.00;99.90;;;;;;5035152;28;20076;-84
2021/11/08 12:30:21;;;;;;;21.92;3.97;;;11.90;99.90;;;;;;5035327;28;20481;-84
2021/11/08 12:32:50;;;;;;;25.70;4.05;;;11.90;99.90;;;;;;5033078;28;20541;-84
2021/11/08 12:35:21;;;;;;;14.98;2.97;;;11.90;99.90;;;;;;5028563;28;20062;-84
2021/11/08 12:37:47;;;;;;;21.30;3.75;;;11.90;99.90;;;;;;5019335;28;20032;-84
2021/11/08 12:40:15;;;;;;;18.80;4.07;;;11.80;99.90;;;;;;5033788;28;20384;-84
2021/11/08 12:42:43;;;;;;;29.33;3.92;;;11.80;99.90;;;;;;5032802;28;20065;-84
2021/11/08 12:45:15;;;;;;;15.98;3.03;;;11.80;99.90;;;;;;5031911;28;20662;-84
2021/11/08 12:47:41;;;;;;;18.15;3.65;;;11.80;99.90;;;;;;5031787;28;20457;-84
2021/11/08 12:50:07;;;;;;;12.45;2.72;;;11.80;99.90;;;;;;5032224;28;20515;-84
2021/11/08 12:52:39;;;;;;;20.30;3.30;;;11.90;99.90;;;;;;5029988;28;20033;-84
2021/11/08 12:55:14;;;;;;;16.90;2.65;;;12.00;99.90;;;;;;5018368;28;20656;-84
2021/11/08 12:57:56;;;;;;;16.88;3.00;;;12.00;99.90;;;;;;5032471;28;20142;-84
2021/11/08 13:00:28;;;;;;;13.20;2.80;;;12.10;99.90;;;;;;5031653;28;20046;-84
2021/11/08 13:02:58;;;;;;;20.42;3.72;;;12.10;99.90;;;;;;5031906;28;20374;-84
2021/11/08 13:05:37;;;;;;;14.20;3.03;;;12.20;99.90;;;;;;5027876;28;20382;-85
2021/11/08 13:08:03;;;;;;;18.77;3.00;;;12.20;99.90;;;;;;5035144;28;20068;-83
2021/11/08 13:10:37;;;;;;;22.08;2.85;;;12.20;99.90;;;;;;5034584;28;20519;-85
2021/11/08 13:13:08;;;;;;;18.08;2.75;;;12.30;99.90;;;;;;5033720;28;20033;-86
2021/11/08 13:15:38;;;;;;;17.92;2.78;;;12.20;99.90;;;;;;5033467;28;20132;-85
2021/11/08 13:18:08;;;;;;;15.20;2.20;;;12.30;99.90;;;;;;5027788;28;20038;-85
2021/11/08 13:20:46;;;;;;;19.75;3.42;;;12.30;99.90;;;;;;5033500;28;20075;-85
2021/11/08 13:23:16;;;;;;;15.13;2.50;;;12.40;99.90;;;;;;5025592;28;20497;-85
2021/11/08 13:25:48;;;;;;;19.50;2.65;;;12.40;99.90;;;;;;5028487;28;20053;-85
2021/11/08 13:28:23;;;;;;;21.00;3.38;;;12.30;99.90;;;;;;5023856;28;20034;-85
2021/11/08 13:30:55;;;;;;;23.63;3.53;;;12.30;99.90;;;;;;5027412;28;20091;-86
2021/11/08 13:33:24;;;;;;;14.95;2.13;;;12.30;99.90;;;;;;5025046;28;20026;-87
2021/11/08 13:35:50;;;;;;;17.60;2.65;;;12.30;99.90;;;;;;5020824;28;20083;-86
2021/11/08 13:38:34;;;;;;;17.48;2.80;;;12.30;99.90;;;;;;5028067;28;20048;-86
2021/11/08 13:41:04;;;;;;;17.48;2.67;;;12.30;99.90;;;;;;5024884;28;20033;-85
2021/11/08 13:43:41;;;;;;;17.65;2.85;;;12.30;99.90;;;;;;5031704;28;20485;-86
2021/11/08 13:46:15;;;;;;;18.02;2.60;;;12.30;99.90;;;;;;5032242;28;20061;-86
2021/11/08 13:48:44;;;;;;;17.85;2.22;;;12.30;99.90;;;;;;5027881;28;20504;-85
2021/11/08 13:51:27;;;;;;;22.27;4.38;;;12.30;99.90;;;;;;5026778;28;20030;-85
2021/11/08 13:53:54;;;;;;;;;;;12.20;99.90;;;;;;5031174;28;20052;-85
2021/11/08 13:56:21;;;;;;;12.82;2.25;;;12.20;99.90;;;;;;5047312;28;19951;-86
2021/11/08 13:58:52;;;;;;;17.55;2.88;;;12.20;99.90;;;;;;5029096;28;20037;-86
2021/11/08 14:01:20;;;;;;;18.42;2.35;;;12.30;99.90;;;;;;5032127;28;20029;-85
2021/11/08 14:03:47;;;;;;;23.60;3.05;;;12.30;99.90;;;;;;5035387;28;20374;-85
2021/11/08 14:06:24;;;;;;;18.27;2.15;;;12.20;99.90;;;;;;5033144;28;20018;-83
2021/11/08 14:08:50;;;;;;;19.08;1.80;;;12.20;99.90;;;;;;5028738;28;20033;-85
2021/11/08 14:11:42;;;;;;;20.58;2.15;;;12.30;99.90;;;;;;5029459;28;20359;-84
2021/11/08 14:14:17;;;;;;;22.02;2.80;;;12.20;99.90;;;;;;5029212;28;20029;-85
2021/11/08 14:16:47;;;;;;;20.30;2.40;;;12.10;99.90;;;;;;5029807;28;20025;-85
2021/11/08 14:19:15;;;;;;;21.15;3.95;;;12.10;99.90;;;;;;5031895;28;20036;-85
2021/11/08 14:21:43;;;;;;;15.27;2.45;;;12.10;99.90;;;;;;5046130;28;20029;-85
2021/11/08 14:24:14;;;;;;;21.30;2.72;;;12.10;99.90;;;;;;5033215;28;20091;-85
2021/11/08 14:26:46;;;;;;;19.08;2.25;;;12.10;99.90;;;;;;5032521;28;20030;-85
2021/11/08 14:29:18;;;;;;;19.10;2.25;;;12.00;99.90;;;;;;5032360;28;20048;-84